createdAt,value
2022-11-29T00:01:32.019Z,36.17
2022-11-29T00:03:59.780Z,35.85
2022-11-29T00:06:32.511Z,36.15
2022-11-29T00:09:06.103Z,36.52
2022-11-29T00:11:54.587Z,37.21
2022-11-29T00:14:23.517Z,39.73
2022-11-29T00:16:52.986Z,38.11
2022-11-29T00:19:20.738Z,40.27
2022-11-29T00:21:47.653Z,41.38
2022-11-29T00:24:14.755Z,40.60
2022-11-29T00:26:41.816Z,43.18
2022-11-29T00:29:10.855Z,43.23
2022-11-29T00:31:37.962Z,43.25
2022-11-29T00:34:09.035Z,44.44
2022-11-29T00:36:35.951Z,45.71
2022-11-29T00:39:04.951Z,46.42
2022-11-29T00:41:32.397Z,44.00
2022-11-29T00:43:59.321Z,42.94
2022-11-29T00:46:26.442Z,45.14
2022-11-29T00:48:53.527Z,47.27
2022-11-29T00:51:20.352Z,47.86
2022-11-29T00:53:47.338Z,53.28
2022-11-29T00:56:14.485Z,55.53
2022-11-29T00:58:43.484Z,64.72
2022-11-29T01:01:11.581Z,61.42
2022-11-29T01:03:38.602Z,61.37
2022-11-29T01:06:08.585Z,62.02
2022-11-29T01:08:36.008Z,64.40
2022-11-29T01:11:10.823Z,64.80
2022-11-29T01:13:37.935Z,66.32
2022-11-29T01:16:06.314Z,65.38
2022-11-29T01:18:35.064Z,65.69
2022-11-29T01:21:06.339Z,67.49
2022-11-29T01:23:35.174Z,64.98
2022-11-29T01:26:12.257Z,63.44
2022-11-29T01:28:40.738Z,66.54
2022-11-29T01:31:08.670Z,67.37
2022-11-29T01:33:36.676Z,65.07
2022-11-29T01:36:05.526Z,68.30
2022-11-29T01:38:33.270Z,69.85
2022-11-29T01:41:07.756Z,67.40
2022-11-29T01:43:53.329Z,68.75
2022-11-29T01:46:20.213Z,70.12
2022-11-29T01:48:48.431Z,68.11
2022-11-29T01:51:15.836Z,71.81
2022-11-29T01:53:42.961Z,69.34
2022-11-29T01:56:10.725Z,67.70
2022-11-29T01:58:37.700Z,66.58
2022-11-29T02:01:04.608Z,69.38
2022-11-29T02:03:31.495Z,66.44
2022-11-29T02:05:59.490Z,65.13
2022-11-29T02:08:40.659Z,64.93
2022-11-29T02:11:31.513Z,65.63
2022-11-29T02:14:10.415Z,63.08
2022-11-29T02:16:46.705Z,67.57
2022-11-29T02:19:32.228Z,66.76
2022-11-29T02:22:54.979Z,65.72
2022-11-29T02:25:53.139Z,68.61
2022-11-29T02:28:51.114Z,61.01
2022-11-29T02:31:40.449Z,62.05
2022-11-29T02:34:18.048Z,64.77
2022-11-29T02:36:51.510Z,62.05
2022-11-29T02:39:30.403Z,61.94
2022-11-29T02:42:12.381Z,60.72
2022-11-29T02:45:15.251Z,60.24
2022-11-29T02:48:10.576Z,68.09
2022-11-29T02:51:12.570Z,64.27
2022-11-29T02:53:51.193Z,64.00
2022-11-29T02:56:34.200Z,60.44
2022-11-29T02:59:20.307Z,59.12
2022-11-29T03:02:03.631Z,58.55
2022-11-29T03:04:54.435Z,67.63
2022-11-29T03:07:47.913Z,68.01
2022-11-29T03:10:29.824Z,62.77
2022-11-29T03:12:59.665Z,64.58
2022-11-29T03:15:38.684Z,61.85
2022-11-29T03:18:17.662Z,54.47
2022-11-29T03:20:47.849Z,55.74
2022-11-29T03:23:44.007Z,59.14
2022-11-29T03:26:17.414Z,62.83
2022-11-29T03:29:07.252Z,57.97
2022-11-29T03:31:38.541Z,61.77
2022-11-29T03:34:24.345Z,63.68
2022-11-29T03:37:21.511Z,60.57
2022-11-29T03:40:04.809Z,61.77
2022-11-29T03:42:40.510Z,61.73
2022-11-29T03:45:10.879Z,61.38
2022-11-29T03:48:02.139Z,60.34
2022-11-29T03:50:41.310Z,60.25
2022-11-29T03:53:23.228Z,59.18
2022-11-29T03:55:58.685Z,59.52
2022-11-29T03:58:39.179Z,57.59
2022-11-29T04:01:49.639Z,57.84
2022-11-29T04:04:38.331Z,56.20
2022-11-29T04:07:05.323Z,58.48
2022-11-29T04:09:35.606Z,50.86
2022-11-29T04:12:23.730Z,55.13
2022-11-29T04:15:32.609Z,54.80
2022-11-29T04:18:41.623Z,57.72
2022-11-29T04:21:40.937Z,52.06
2022-11-29T04:24:26.314Z,52.27
2022-11-29T04:27:27.689Z,50.64
2022-11-29T04:30:02.589Z,53.21
2022-11-29T04:33:07.538Z,50.06
2022-11-29T04:36:12.117Z,46.80
2022-11-29T04:39:00.802Z,46.40
2022-11-29T04:41:46.582Z,45.76
2022-11-29T04:44:37.334Z,42.80
2022-11-29T04:47:41.893Z,46.12
2022-11-29T04:50:24.752Z,49.34
2022-11-29T04:53:10.645Z,49.58
2022-11-29T04:56:01.122Z,53.30
2022-11-29T04:58:53.237Z,52.63
2022-11-29T05:02:05.804Z,51.74
2022-11-29T05:04:54.645Z,53.72
2022-11-29T05:07:44.404Z,54.27
2022-11-29T05:10:29.609Z,53.88
2022-11-29T05:13:26.222Z,57.97
2022-11-29T05:16:06.801Z,54.54
2022-11-29T05:18:56.880Z,54.28
2022-11-29T05:21:32.107Z,54.63
2022-11-29T05:24:08.182Z,54.49
2022-11-29T05:26:44.130Z,51.18
2022-11-29T05:29:22.013Z,56.50
2022-11-29T05:32:19.400Z,53.80
2022-11-29T05:35:12.272Z,52.60
2022-11-29T05:37:57.342Z,51.88
2022-11-29T05:40:46.062Z,53.00
2022-11-29T05:43:50.410Z,53.39
2022-11-29T05:46:42.779Z,51.61
2022-11-29T05:49:29.486Z,48.81
2022-11-29T05:52:31.324Z,48.09
2022-11-29T05:55:14.905Z,52.49
2022-11-29T05:57:59.042Z,52.66
2022-11-29T06:00:46.036Z,50.31
2022-11-29T06:03:29.941Z,53.51
2022-11-29T06:06:07.068Z,54.13
2022-11-29T06:08:55.438Z,57.38
2022-11-29T06:11:38.666Z,60.38
2022-11-29T06:14:22.658Z,56.92
2022-11-29T06:17:27.385Z,54.29
2022-11-29T06:20:15.336Z,53.11
2022-11-29T06:23:16.136Z,57.08
2022-11-29T06:26:17.945Z,53.89
2022-11-29T06:28:57.486Z,57.19
2022-11-29T06:31:38.494Z,59.85
2022-11-29T06:34:12.136Z,55.42
2022-11-29T06:36:50.644Z,53.11
2022-11-29T06:39:17.852Z,54.18
2022-11-29T06:41:45.071Z,50.75
2022-11-29T06:44:12.212Z,52.02
2022-11-29T06:47:04.779Z,48.42
2022-11-29T06:49:54.378Z,49.96
2022-11-29T06:53:00.330Z,54.53
2022-11-29T06:55:56.471Z,51.76
2022-11-29T06:58:46.741Z,53.83
2022-11-29T07:01:13.602Z,53.38
2022-11-29T07:04:02.893Z,54.63
2022-11-29T07:06:32.041Z,56.68
2022-11-29T07:09:04.257Z,52.83
2022-11-29T07:11:31.460Z,51.51
2022-11-29T07:13:58.776Z,50.46
2022-11-29T07:16:57.030Z,53.92
2022-11-29T07:19:42.325Z,53.97
2022-11-29T07:22:32.153Z,54.28
2022-11-29T07:25:29.194Z,55.83
2022-11-29T07:28:22.315Z,56.81
2022-11-29T07:30:58.136Z,57.08
2022-11-29T07:33:49.304Z,56.26
2022-11-29T07:36:40.764Z,53.03
2022-11-29T07:39:21.488Z,53.18
2022-11-29T07:42:10.355Z,54.60
2022-11-29T07:45:04.826Z,52.44
2022-11-29T07:47:35.670Z,52.09
2022-11-29T07:50:03.668Z,52.40
2022-11-29T07:52:30.790Z,53.41
2022-11-29T07:54:57.720Z,51.73
2022-11-29T07:57:24.646Z,51.93
2022-11-29T07:59:51.572Z,53.58
2022-11-29T08:02:31.554Z,52.84
2022-11-29T08:04:58.638Z,55.55
2022-11-29T08:07:25.596Z,54.85
2022-11-29T08:09:52.807Z,53.54
2022-11-29T08:12:20.011Z,55.27
2022-11-29T08:14:47.343Z,53.73
2022-11-29T08:17:14.625Z,54.25
2022-11-29T08:19:41.512Z,55.82
2022-11-29T08:22:08.539Z,53.01
2022-11-29T08:24:35.584Z,55.43
2022-11-29T08:27:02.613Z,55.58
2022-11-29T08:29:29.766Z,52.69
2022-11-29T08:31:56.793Z,51.88
2022-11-29T08:34:24.945Z,51.33
2022-11-29T08:36:56.155Z,51.55
2022-11-29T08:39:23.331Z,52.71
2022-11-29T08:41:50.452Z,50.28
2022-11-29T08:44:18.152Z,47.28
2022-11-29T08:47:14.445Z,43.46
2022-11-29T08:50:01.171Z,42.62
2022-11-29T08:52:56.557Z,43.77
2022-11-29T08:55:27.144Z,43.38
2022-11-29T08:58:00.329Z,42.57
2022-11-29T09:00:27.230Z,43.19
2022-11-29T09:02:54.140Z,45.50
2022-11-29T09:05:21.109Z,44.63
2022-11-29T09:07:48.095Z,43.09
2022-11-29T09:10:15.219Z,44.51
2022-11-29T09:12:44.170Z,47.05
2022-11-29T09:15:11.349Z,48.27
2022-11-29T09:17:38.288Z,45.67
2022-11-29T09:20:06.080Z,46.01
2022-11-29T09:22:33.223Z,46.42
2022-11-29T09:25:00.349Z,45.98
2022-11-29T09:27:27.393Z,45.43
2022-11-29T09:29:54.448Z,46.00
2022-11-29T09:32:21.313Z,46.47
2022-11-29T09:34:48.566Z,45.62
2022-11-29T09:37:15.729Z,45.05
2022-11-29T09:39:42.961Z,44.42
2022-11-29T09:42:34.885Z,46.59
2022-11-29T09:45:18.272Z,46.64
2022-11-29T09:48:23.071Z,45.98
2022-11-29T09:51:18.023Z,45.65
2022-11-29T09:54:12.362Z,44.44
2022-11-29T09:56:47.193Z,41.23
2022-11-29T09:59:32.578Z,41.43
2022-11-29T10:02:10.552Z,40.99
2022-11-29T10:04:46.105Z,40.18
2022-11-29T10:07:46.316Z,40.34
2022-11-29T10:10:20.411Z,40.26
2022-11-29T10:12:51.570Z,41.65
2022-11-29T10:15:31.378Z,40.26
2022-11-29T10:18:22.073Z,38.04
2022-11-29T10:20:53.515Z,38.62
2022-11-29T10:23:38.416Z,40.26
2022-11-29T10:26:08.653Z,40.08
2022-11-29T10:28:37.880Z,39.75
2022-11-29T10:31:33.121Z,37.71
2022-11-29T10:34:07.977Z,37.19
2022-11-29T10:36:50.265Z,35.23
2022-11-29T10:39:39.487Z,37.10
2022-11-29T10:42:37.343Z,36.75
2022-11-29T10:45:17.810Z,35.57
2022-11-29T10:47:47.745Z,37.15
2022-11-29T10:50:26.843Z,34.88
2022-11-29T10:53:10.718Z,36.13
2022-11-29T10:55:50.757Z,35.99
2022-11-29T10:58:28.331Z,37.35
2022-11-29T11:01:06.554Z,36.63
2022-11-29T11:03:33.685Z,35.64
2022-11-29T11:06:03.529Z,33.62
2022-11-29T11:08:32.975Z,33.16
2022-11-29T11:11:03.063Z,34.80
2022-11-29T11:13:32.475Z,34.50
2022-11-29T11:16:09.868Z,32.20
2022-11-29T11:18:38.300Z,30.60
2022-11-29T11:21:10.614Z,30.52
2022-11-29T11:23:45.812Z,30.74
2022-11-29T11:26:14.684Z,32.43
2022-11-29T11:28:54.042Z,32.31
2022-11-29T11:31:34.761Z,32.15
2022-11-29T11:34:26.410Z,32.00
2022-11-29T11:37:10.876Z,30.05
2022-11-29T11:39:37.970Z,29.70
2022-11-29T11:42:24.411Z,31.25
2022-11-29T11:44:53.282Z,31.53
2022-11-29T11:47:27.544Z,33.96
2022-11-29T11:50:00.480Z,35.48
2022-11-29T11:52:39.565Z,34.57
2022-11-29T11:55:28.182Z,34.23
2022-11-29T11:58:09.267Z,33.68
2022-11-29T12:01:06.597Z,33.03
2022-11-29T12:04:02.210Z,32.86
2022-11-29T12:06:41.958Z,33.10
2022-11-29T12:09:09.764Z,32.49
2022-11-29T12:12:04.774Z,33.48
2022-11-29T12:14:48.610Z,35.93
2022-11-29T12:17:22.571Z,33.83
2022-11-29T12:20:05.807Z,32.15
2022-11-29T12:22:46.591Z,32.75
2022-11-29T12:25:26.530Z,31.86
2022-11-29T12:27:53.754Z,31.74
2022-11-29T12:30:21.131Z,31.23
2022-11-29T12:33:39.394Z,29.62
2022-11-29T12:36:48.005Z,30.25
2022-11-29T12:39:40.110Z,29.31
2022-11-29T12:42:18.154Z,30.35
2022-11-29T12:44:48.382Z,31.00
2022-11-29T12:47:36.863Z,30.70
2022-11-29T12:50:35.733Z,30.09
2022-11-29T12:53:11.879Z,31.68
2022-11-29T12:56:08.028Z,30.30
2022-11-29T12:59:28.445Z,29.93
2022-11-29T13:02:20.635Z,29.70
2022-11-29T13:05:03.400Z,29.35
2022-11-29T13:07:42.647Z,29.23
2022-11-29T13:10:29.135Z,29.69
2022-11-29T13:13:12.989Z,30.48
2022-11-29T13:16:15.834Z,31.03
2022-11-29T13:19:02.249Z,31.67
2022-11-29T13:21:43.931Z,31.34
2022-11-29T13:24:38.368Z,30.60
2022-11-29T13:27:25.314Z,29.75
2022-11-29T13:29:53.780Z,31.00
2022-11-29T13:33:02.388Z,30.00
2022-11-29T13:35:50.410Z,32.00
2022-11-29T13:38:35.838Z,28.10
2022-11-29T13:41:19.743Z,26.18
2022-11-29T13:44:20.874Z,24.75
2022-11-29T13:47:08.723Z,22.79
2022-11-29T13:49:53.696Z,23.31
2022-11-29T13:52:23.473Z,22.09
2022-11-29T13:55:04.159Z,21.59
2022-11-29T14:00:42.458Z,29.81
2022-11-29T14:03:19.002Z,27.74
2022-11-29T14:05:52.988Z,28.03
2022-11-29T14:08:23.872Z,27.95
2022-11-29T14:10:55.053Z,28.48
2022-11-29T14:13:52.927Z,27.07
2022-11-29T14:16:30.509Z,28.03
2022-11-29T14:19:09.880Z,27.81
2022-11-29T14:21:58.740Z,26.61
2022-11-29T14:24:37.929Z,25.38
2022-11-29T14:27:07.905Z,25.88
2022-11-29T14:29:49.643Z,25.69
2022-11-29T14:32:23.880Z,26.04
2022-11-29T14:35:12.070Z,25.53
2022-11-29T14:38:23.084Z,26.23
2022-11-29T14:41:06.192Z,26.79
2022-11-29T14:43:37.596Z,27.57
2022-11-29T14:46:16.744Z,27.82
2022-11-29T14:48:55.788Z,28.23
2022-11-29T14:51:26.971Z,28.66
2022-11-29T14:54:14.806Z,29.49
2022-11-29T14:56:44.852Z,29.63
2022-11-29T14:59:49.509Z,29.66
2022-11-29T15:02:25.594Z,28.65
2022-11-29T15:04:57.252Z,29.87
2022-11-29T15:07:30.378Z,28.90
2022-11-29T15:10:04.804Z,29.04
2022-11-29T15:12:37.522Z,29.06
2022-11-29T15:15:07.434Z,29.89
2022-11-29T15:18:07.379Z,28.82
2022-11-29T15:20:40.607Z,27.88
2022-11-29T15:23:17.472Z,28.42
2022-11-29T15:25:53.984Z,30.07
2022-11-29T15:28:24.935Z,28.71
2022-11-29T15:31:10.984Z,30.04
2022-11-29T15:33:44.399Z,29.97
2022-11-29T15:36:24.180Z,30.84
2022-11-29T15:38:55.503Z,35.98
2022-11-29T15:41:31.085Z,34.76
2022-11-29T15:44:01.785Z,50.02
2022-11-29T15:46:32.066Z,43.80
2022-11-29T15:49:24.687Z,35.70
2022-11-29T15:51:57.898Z,38.55
2022-11-29T15:54:38.834Z,37.21
2022-11-29T15:57:15.977Z,34.16
2022-11-29T16:00:00.966Z,34.46
2022-11-29T16:02:35.229Z,33.70
2022-11-29T16:05:17.716Z,33.49
2022-11-29T16:07:48.675Z,34.76
2022-11-29T16:10:23.661Z,36.60
2022-11-29T16:12:59.362Z,34.94
2022-11-29T16:15:32.401Z,34.30
2022-11-29T16:18:12.936Z,34.93
2022-11-29T16:20:40.576Z,34.34
2022-11-29T16:23:16.491Z,38.45
2022-11-29T16:26:14.680Z,45.24
2022-11-29T16:28:53.270Z,36.33
2022-11-29T16:31:23.574Z,34.73
2022-11-29T16:33:52.571Z,36.29
2022-11-29T16:36:27.338Z,34.66
2022-11-29T16:39:04.374Z,35.53
2022-11-29T16:41:35.616Z,35.69
2022-11-29T16:44:09.975Z,41.45
2022-11-29T16:46:38.835Z,41.55
2022-11-29T16:49:35.389Z,35.78
2022-11-29T16:52:04.112Z,37.11
2022-11-29T16:54:35.660Z,35.91
2022-11-29T16:57:06.259Z,38.92
2022-11-29T16:59:35.098Z,37.23
2022-11-29T17:02:01.959Z,38.46
2022-11-29T17:04:29.030Z,50.69
2022-11-29T17:06:57.155Z,41.10
2022-11-29T17:09:31.221Z,40.70
2022-11-29T17:12:02.089Z,39.66
2022-11-29T17:14:30.158Z,43.41
2022-11-29T17:16:59.797Z,61.34
2022-11-29T17:19:29.352Z,46.18
2022-11-29T17:21:56.717Z,39.36
2022-11-29T17:24:25.281Z,37.84
2022-11-29T17:26:52.110Z,35.39
2022-11-29T17:29:19.188Z,39.04
2022-11-29T17:31:47.214Z,41.10
2022-11-29T17:34:14.391Z,39.28
2022-11-29T17:36:41.755Z,39.69
2022-11-29T17:39:08.835Z,39.31
2022-11-29T17:41:35.910Z,38.30
2022-11-29T17:44:03.932Z,37.55
2022-11-29T17:46:34.007Z,36.98
2022-11-29T17:49:04.474Z,37.86
2022-11-29T17:54:20.919Z,37.33
2022-11-29T17:56:48.035Z,38.08
2022-11-29T17:59:14.891Z,37.53
2022-11-29T18:01:41.835Z,36.89
2022-11-29T18:04:08.889Z,37.00
2022-11-29T18:06:38.760Z,36.68
2022-11-29T18:09:07.696Z,35.17
2022-11-29T18:11:46.367Z,38.94
2022-11-29T18:14:22.847Z,38.52
2022-11-29T18:16:50.743Z,38.74
2022-11-29T18:19:21.097Z,40.74
2022-11-29T18:21:49.429Z,40.20
2022-11-29T18:24:17.469Z,42.16
2022-11-29T18:26:44.469Z,41.34
2022-11-29T18:29:11.721Z,39.74
2022-11-29T18:31:42.916Z,40.15
2022-11-29T18:34:11.848Z,40.65
2022-11-29T18:36:45.243Z,41.81
2022-11-29T18:39:17.635Z,41.49
2022-11-29T18:41:48.507Z,38.30
2022-11-29T18:44:18.082Z,39.05
2022-11-29T18:46:46.410Z,42.32
2022-11-29T18:49:18.442Z,44.31
2022-11-29T18:51:47.405Z,44.45
2022-11-29T18:54:16.840Z,45.32
2022-11-29T18:56:45.557Z,40.80
2022-11-29T18:59:16.810Z,41.79
2022-11-29T19:01:46.329Z,40.82
2022-11-29T19:04:19.418Z,40.92
2022-11-29T19:06:46.901Z,41.45
2022-11-29T19:09:21.119Z,42.13
2022-11-29T19:11:49.598Z,42.06
2022-11-29T19:14:16.614Z,42.77
2022-11-29T19:16:46.211Z,45.27
2022-11-29T19:19:13.596Z,43.94
2022-11-29T19:21:41.296Z,45.05
2022-11-29T19:24:14.553Z,44.60
2022-11-29T19:26:44.545Z,47.19
2022-11-29T19:29:13.005Z,52.96
2022-11-29T19:31:39.908Z,48.88
2022-11-29T19:34:06.908Z,51.46
2022-11-29T19:36:34.170Z,52.95
2022-11-29T19:39:03.049Z,50.86
2022-11-29T19:41:35.216Z,48.20
2022-11-29T19:44:05.830Z,50.10
2022-11-29T19:46:39.292Z,48.78
2022-11-29T19:49:08.060Z,51.32
2022-11-29T19:51:36.272Z,44.76
2022-11-29T19:54:06.229Z,44.09
2022-11-29T19:56:33.162Z,47.57
2022-11-29T19:59:00.454Z,47.51
2022-11-29T20:01:37.844Z,51.22
2022-11-29T20:04:07.348Z,46.51
2022-11-29T20:06:34.464Z,50.19
2022-11-29T20:09:02.076Z,47.47
2022-11-29T20:11:29.337Z,47.33
2022-11-29T20:13:59.157Z,48.90
2022-11-29T20:16:28.382Z,48.64
2022-11-29T20:18:58.126Z,46.96
2022-11-29T20:21:31.136Z,50.02
2022-11-29T20:24:04.707Z,46.31
2022-11-29T20:26:35.877Z,47.22
2022-11-29T20:29:04.567Z,48.77
2022-11-29T20:31:33.420Z,48.06
2022-11-29T20:34:00.909Z,48.64
2022-11-29T20:37:00.912Z,49.81
2022-11-29T20:39:54.392Z,49.01
2022-11-29T20:42:46.279Z,49.61
2022-11-29T20:45:14.756Z,49.58
2022-11-29T20:47:58.655Z,48.36
2022-11-29T20:50:29.087Z,47.97
2022-11-29T20:53:10.745Z,46.97
2022-11-29T20:55:42.496Z,50.11
2022-11-29T20:58:13.258Z,48.43
2022-11-29T21:00:40.182Z,48.90
2022-11-29T21:03:07.212Z,50.65
2022-11-29T21:05:37.895Z,51.54
2022-11-29T21:08:04.995Z,48.12
2022-11-29T21:10:32.352Z,47.55
2022-11-29T21:12:59.452Z,46.38
2022-11-29T21:15:26.990Z,46.94
2022-11-29T21:17:54.244Z,45.71
2022-11-29T21:20:24.809Z,44.94
2022-11-29T21:23:09.889Z,48.42
2022-11-29T21:25:47.436Z,46.28
2022-11-29T21:28:16.263Z,47.17
2022-11-29T21:30:43.850Z,44.96
2022-11-29T21:33:11.552Z,46.59
2022-11-29T21:35:39.790Z,47.14
2022-11-29T21:38:23.297Z,44.78
2022-11-29T21:40:50.316Z,46.34
2022-11-29T21:43:17.272Z,54.96
2022-11-29T21:45:47.649Z,48.18
2022-11-29T21:48:33.649Z,46.72
2022-11-29T21:51:01.862Z,46.73
2022-11-29T21:53:29.204Z,45.83
2022-11-29T21:55:57.372Z,46.43
2022-11-29T21:58:25.448Z,46.59
2022-11-29T22:00:52.964Z,48.53
2022-11-29T22:03:19.951Z,45.04
2022-11-29T22:05:47.012Z,46.05
2022-11-29T22:08:14.112Z,46.80
2022-11-29T22:10:41.160Z,48.35
2022-11-29T22:13:08.013Z,49.88
2022-11-29T22:15:35.018Z,49.27
2022-11-29T22:18:01.904Z,48.52
2022-11-29T22:20:28.935Z,49.03
2022-11-29T22:22:58.805Z,51.20
2022-11-29T22:25:25.836Z,53.50
2022-11-29T22:27:52.868Z,52.31
2022-11-29T22:30:19.794Z,51.54
2022-11-29T22:32:46.844Z,50.69
2022-11-29T22:35:13.798Z,51.10
2022-11-29T22:37:40.847Z,51.25
2022-11-29T22:40:08.219Z,52.07
2022-11-29T22:42:35.353Z,51.86
2022-11-29T22:45:03.989Z,55.23
2022-11-29T22:47:30.881Z,53.83
2022-11-29T22:49:57.742Z,51.23
2022-11-29T22:52:24.628Z,55.47
2022-11-29T22:54:51.671Z,56.07
2022-11-29T22:57:18.727Z,57.87
2022-11-29T22:59:45.577Z,55.44
2022-11-29T23:02:12.487Z,56.03
2022-11-29T23:04:39.567Z,56.55
2022-11-29T23:07:06.441Z,55.54
2022-11-29T23:09:33.271Z,55.93
2022-11-29T23:12:00.155Z,56.69
2022-11-29T23:14:27.189Z,57.69
2022-11-29T23:16:54.301Z,56.71
2022-11-29T23:19:21.234Z,56.86
2022-11-29T23:21:48.103Z,57.45
2022-11-29T23:24:16.153Z,57.69
2022-11-29T23:26:45.666Z,58.12
2022-11-29T23:29:17.933Z,59.36
2022-11-29T23:31:46.706Z,59.19
2022-11-29T23:34:14.385Z,61.08
2022-11-29T23:36:41.646Z,61.29
2022-11-29T23:39:08.710Z,60.94
2022-11-29T23:41:36.765Z,61.42
2022-11-29T23:44:05.480Z,61.31
2022-11-29T23:46:32.617Z,61.12
2022-11-29T23:48:59.666Z,63.24
2022-11-29T23:51:26.722Z,61.49
2022-11-29T23:53:54.960Z,60.68
2022-11-29T23:56:22.104Z,60.40
2022-11-29T23:58:49.302Z,62.97
